createdAt,value
2023-05-04T00:00:11.021Z,11.07
2023-05-04T00:02:37.960Z,11.30
2023-05-04T00:05:08.383Z,10.90
2023-05-04T00:07:35.434Z,12.13
2023-05-04T00:10:02.533Z,10.77
2023-05-04T00:12:29.548Z,11.80
2023-05-04T00:14:56.480Z,11.15
2023-05-04T00:17:23.418Z,11.17
2023-05-04T00:19:50.399Z,10.38
2023-05-04T00:22:17.309Z,9.65
2023-05-04T00:24:45.148Z,9.25
2023-05-04T00:27:13.080Z,8.73
2023-05-04T00:29:40.317Z,8.02
2023-05-04T00:32:07.351Z,7.47
2023-05-04T00:34:34.330Z,7.80
2023-05-04T00:37:01.414Z,6.18
2023-05-04T00:39:28.425Z,6.93
2023-05-04T00:41:55.906Z,6.75
2023-05-04T00:44:24.112Z,6.55
2023-05-04T00:46:55.461Z,7.00
2023-05-04T00:49:24.131Z,6.80
2023-05-04T00:51:52.080Z,6.32
2023-05-04T00:54:19.646Z,6.18
2023-05-04T00:56:47.411Z,6.38
2023-05-04T00:59:14.265Z,4.80
2023-05-04T01:01:41.676Z,4.88
2023-05-04T01:04:09.053Z,5.50
2023-05-04T01:06:47.700Z,3.85
2023-05-04T01:09:23.686Z,3.35
2023-05-04T01:12:16.848Z,2.10
2023-05-04T01:14:44.212Z,1.77
2023-05-04T01:17:11.696Z,1.70
2023-05-04T01:19:38.759Z,1.60
2023-05-04T01:22:05.605Z,1.30
2023-05-04T01:24:32.961Z,1.20
2023-05-04T01:27:08.926Z,1.23
2023-05-04T01:29:53.892Z,1.10
2023-05-04T01:32:22.553Z,1.02
2023-05-04T01:34:49.499Z,1.00
2023-05-04T01:37:16.507Z,1.23
2023-05-04T01:39:43.360Z,0.60
2023-05-04T01:42:10.250Z,0.75
2023-05-04T01:44:37.261Z,1.00
2023-05-04T01:47:04.204Z,0.82
2023-05-04T01:49:31.004Z,0.82
2023-05-04T01:51:57.900Z,0.90
2023-05-04T01:54:24.915Z,0.60
2023-05-04T01:56:51.869Z,0.70
2023-05-04T01:59:18.738Z,1.13
2023-05-04T02:01:45.725Z,0.63
2023-05-04T02:04:12.688Z,0.80
2023-05-04T02:06:39.594Z,0.90
2023-05-04T02:09:07.038Z,1.00
2023-05-04T02:11:33.843Z,0.80
2023-05-04T02:14:00.703Z,0.75
2023-05-04T02:16:27.620Z,0.90
2023-05-04T02:18:54.483Z,0.87
2023-05-04T02:21:21.559Z,0.90
2023-05-04T02:23:48.363Z,0.88
2023-05-04T02:26:15.252Z,1.13
2023-05-04T02:28:42.202Z,0.98
2023-05-04T02:31:09.213Z,0.80
2023-05-04T02:33:36.125Z,1.15
2023-05-04T02:36:03.068Z,0.90
2023-05-04T02:38:29.944Z,0.90
2023-05-04T02:40:58.353Z,0.97
2023-05-04T02:43:25.386Z,1.00
2023-05-04T02:45:52.368Z,0.98
2023-05-04T02:48:19.178Z,0.80
2023-05-04T02:50:46.541Z,0.93
2023-05-04T02:53:13.358Z,0.60
2023-05-04T02:55:40.170Z,0.80
2023-05-04T02:58:07.568Z,1.10
2023-05-04T03:00:34.481Z,0.93
2023-05-04T03:03:01.841Z,0.90
2023-05-04T03:05:28.749Z,0.80
2023-05-04T03:07:56.529Z,1.02
2023-05-04T03:10:23.358Z,1.17
2023-05-04T03:12:50.497Z,1.45
2023-05-04T03:15:17.557Z,1.60
2023-05-04T03:17:44.785Z,2.40
2023-05-04T03:20:13.158Z,2.10
2023-05-04T03:22:39.987Z,2.33
2023-05-04T03:25:07.761Z,2.20
2023-05-04T03:27:34.572Z,2.30
2023-05-04T03:30:01.385Z,1.70
2023-05-04T03:32:28.245Z,1.70
2023-05-04T03:34:55.113Z,1.67
2023-05-04T03:37:23.082Z,1.80
2023-05-04T03:39:49.936Z,1.90
2023-05-04T03:42:16.789Z,1.38
2023-05-04T03:44:43.631Z,1.75
2023-05-04T03:47:10.552Z,1.63
2023-05-04T03:49:37.413Z,1.52
2023-05-04T03:52:04.284Z,1.23
2023-05-04T03:54:31.370Z,1.03
2023-05-04T03:56:58.265Z,1.27
2023-05-04T03:59:25.239Z,0.77
2023-05-04T04:01:52.119Z,0.95
2023-05-04T04:04:18.948Z,0.50
2023-05-04T04:06:45.976Z,0.80
2023-05-04T04:09:12.949Z,0.95
2023-05-04T04:11:39.736Z,0.60
2023-05-04T04:14:06.668Z,0.95
2023-05-04T04:16:33.536Z,0.60
2023-05-04T04:19:02.110Z,0.80
2023-05-04T04:21:29.238Z,0.50
2023-05-04T04:23:56.172Z,0.70
2023-05-04T04:26:23.098Z,0.73
2023-05-04T04:28:50.537Z,0.70
2023-05-04T04:31:20.965Z,0.70
2023-05-04T04:33:50.405Z,0.40
2023-05-04T04:36:18.251Z,0.70
2023-05-04T04:38:45.170Z,0.80
2023-05-04T04:41:12.090Z,0.63
2023-05-04T04:43:39.157Z,0.60
2023-05-04T04:46:05.976Z,0.33
2023-05-04T04:48:32.940Z,0.63
2023-05-04T04:50:59.751Z,0.50
2023-05-04T04:53:26.637Z,0.60
2023-05-04T04:55:54.144Z,0.57
2023-05-04T04:58:21.053Z,0.52
2023-05-04T05:00:47.951Z,0.50
2023-05-04T05:03:15.046Z,0.50
2023-05-04T05:05:41.970Z,0.60
2023-05-04T05:08:08.876Z,0.50
2023-05-04T05:10:36.067Z,0.68
2023-05-04T05:13:02.952Z,0.50
2023-05-04T05:15:29.784Z,2.42
2023-05-04T05:17:57.032Z,3.00
2023-05-04T05:20:24.065Z,5.10
2023-05-04T05:22:51.679Z,2.17
2023-05-04T05:25:19.088Z,0.80
2023-05-04T05:27:46.044Z,0.93
2023-05-04T05:30:13.837Z,0.50
2023-05-04T05:32:40.742Z,0.80
2023-05-04T05:35:08.323Z,0.82
2023-05-04T05:37:35.265Z,0.80
2023-05-04T05:40:02.514Z,0.73
2023-05-04T05:42:30.348Z,0.70
2023-05-04T05:44:57.337Z,0.75
2023-05-04T05:47:24.190Z,0.43
2023-05-04T05:49:51.043Z,0.83
2023-05-04T05:52:18.428Z,0.98
2023-05-04T05:54:45.285Z,0.80
2023-05-04T05:57:12.136Z,0.40
2023-05-04T05:59:39.082Z,0.60
2023-05-04T06:02:06.359Z,0.55
2023-05-04T06:04:33.312Z,0.60
2023-05-04T06:07:00.188Z,0.57
2023-05-04T06:09:27.051Z,0.50
2023-05-04T06:11:55.899Z,0.63
2023-05-04T06:14:22.735Z,0.50
2023-05-04T06:16:49.791Z,0.70
2023-05-04T06:19:16.765Z,1.00
2023-05-04T06:21:43.579Z,0.50
2023-05-04T06:24:10.463Z,0.75
2023-05-04T06:26:37.658Z,0.30
2023-05-04T06:29:04.509Z,0.47
2023-05-04T06:31:31.423Z,0.52
2023-05-04T06:33:58.282Z,0.50
2023-05-04T06:36:26.192Z,0.50
2023-05-04T06:38:53.079Z,0.40
2023-05-04T06:41:19.971Z,0.40
2023-05-04T06:43:46.912Z,0.50
2023-05-04T06:46:14.011Z,0.50
2023-05-04T06:48:41.318Z,0.80
2023-05-04T06:51:08.493Z,0.57
2023-05-04T06:53:35.371Z,3.33
2023-05-04T06:56:02.753Z,2.80
2023-05-04T06:58:29.592Z,1.70
2023-05-04T07:00:56.773Z,2.85
2023-05-04T07:03:23.676Z,1.05
2023-05-04T07:05:51.129Z,1.10
2023-05-04T07:08:19.693Z,1.02
2023-05-04T07:10:46.992Z,0.80
2023-05-04T07:13:14.720Z,1.40
2023-05-04T07:15:41.620Z,0.95
2023-05-04T07:18:08.655Z,0.70
2023-05-04T07:20:35.558Z,0.88
2023-05-04T07:23:02.368Z,0.70
2023-05-04T07:25:29.559Z,0.77
2023-05-04T07:27:56.416Z,0.50
2023-05-04T07:30:24.491Z,1.02
2023-05-04T07:32:51.852Z,0.67
2023-05-04T07:35:19.122Z,0.60
2023-05-04T07:37:46.572Z,0.90
2023-05-04T07:40:14.834Z,0.60
2023-05-04T07:42:42.191Z,0.55
2023-05-04T07:45:09.866Z,0.60
2023-05-04T07:47:37.324Z,0.80
2023-05-04T07:50:05.209Z,0.60
2023-05-04T07:52:32.951Z,0.70
2023-05-04T07:55:02.623Z,0.40
2023-05-04T07:57:29.511Z,1.10
2023-05-04T07:59:57.904Z,0.60
2023-05-04T08:02:24.865Z,0.53
2023-05-04T08:04:51.791Z,0.70
2023-05-04T08:07:19.285Z,0.50
2023-05-04T08:09:46.262Z,0.70
2023-05-04T08:12:14.734Z,0.70
2023-05-04T08:14:41.585Z,0.65
2023-05-04T08:17:08.384Z,0.70
2023-05-04T08:19:35.238Z,0.50
2023-05-04T08:22:02.544Z,1.13
2023-05-04T08:24:30.914Z,1.00
2023-05-04T08:27:07.045Z,0.60
2023-05-04T08:29:37.212Z,0.80
2023-05-04T08:32:04.443Z,0.40
2023-05-04T08:34:31.563Z,0.80
2023-05-04T08:36:58.390Z,0.77
2023-05-04T08:39:25.396Z,0.68
2023-05-04T08:41:52.498Z,0.50
2023-05-04T08:44:19.541Z,0.30
2023-05-04T08:46:53.236Z,0.70
2023-05-04T08:49:24.412Z,0.60
2023-05-04T08:51:51.914Z,0.68
2023-05-04T08:54:19.932Z,0.75
2023-05-04T08:56:47.219Z,0.50
2023-05-04T08:59:25.123Z,0.95
2023-05-04T09:02:01.895Z,0.75
2023-05-04T09:04:30.627Z,0.50
2023-05-04T09:06:58.581Z,1.08
2023-05-04T09:09:28.542Z,6.57
2023-05-04T09:11:55.887Z,0.50
2023-05-04T09:16:58.914Z,0.82
2023-05-04T09:19:33.222Z,0.77
2023-05-04T09:22:01.390Z,0.30
2023-05-04T09:24:29.446Z,0.83
2023-05-04T09:27:08.884Z,0.65
2023-05-04T09:29:39.522Z,0.50
2023-05-04T09:32:10.404Z,0.65
2023-05-04T09:34:37.913Z,0.30
2023-05-04T09:37:06.642Z,0.50
2023-05-04T09:39:33.671Z,0.50
2023-05-04T09:42:01.006Z,0.50
2023-05-04T09:44:29.840Z,0.40
2023-05-04T09:46:58.670Z,0.43
2023-05-04T09:49:32.739Z,0.50
2023-05-04T09:52:03.495Z,0.63
2023-05-04T09:54:39.069Z,0.60
2023-05-04T09:57:16.020Z,0.60
2023-05-04T09:59:43.421Z,0.40
2023-05-04T10:02:21.928Z,0.60
2023-05-04T10:04:52.075Z,0.63
2023-05-04T10:07:20.700Z,0.40
2023-05-04T10:09:49.107Z,0.70
2023-05-04T10:12:16.299Z,0.32
